Time;durP1;ratioP1;P1;durP2;ratioP2;P2;SDS_P1;SDS_P2;PMS_P1;PMS_P2;Temp;Humidity;BMP_temperature;BMP_pressure;BME280_temperature;BME280_humidity;BME280_pressure;Samples;Min_cycle;Max_cycle;Signal;HPM_P1;HPM_P2
2022/10/08 00:00:50;;;;;;;20.92;10.25;;;;;;;15.46;100.00;99152.94;4223624;33;20035;-69
2022/10/08 00:03:32;;;;;;;21.02;10.50;;;;;;;15.67;100.00;99161.78;4225714;33;20042;-69
2022/10/08 00:06:09;;;;;;;37.42;12.00;;;;;;;15.08;100.00;99128.97;4251924;33;20056;-69
2022/10/08 00:08:38;;;;;;;21.33;9.93;;;;;;;15.71;100.00;99158.22;4267754;33;20066;-69
2022/10/08 00:11:07;;;;;;;22.02;11.38;;;;;;;15.67;100.00;99154.47;4270104;33;20042;-69
2022/10/08 00:13:41;;;;;;;17.90;9.60;;;;;;;15.53;100.00;99156.97;4267089;33;20321;-70
2022/10/08 00:16:33;;;;;;;16.60;10.13;;;;;;;15.44;100.00;99153.22;4264806;33;20033;-69
2022/10/08 00:19:03;;;;;;;16.15;9.80;;;;;;;14.98;100.00;99118.16;4243582;33;20474;-69
2022/10/08 00:21:33;;;;;;;18.17;10.02;;;;;;;15.26;100.00;99144.62;4251915;33;20423;-68
2022/10/08 00:24:00;;;;;;;16.15;9.77;;;;;;;15.30;100.00;99135.94;4250720;33;20030;-69
2022/10/08 00:26:35;;;;;;;15.93;9.60;;;;;;;15.52;100.00;99133.63;4252443;33;20057;-69
2022/10/08 00:29:03;;;;;;;15.77;9.82;;;;;;;15.44;100.00;99126.09;4253086;33;20026;-69
2022/10/08 00:31:40;;;;;;;18.98;10.13;;;;;;;15.18;100.00;99130.84;4262360;33;20070;-71
2022/10/08 00:34:10;;;;;;;17.10;9.95;;;;;;;15.12;100.00;99130.03;4266615;33;20429;-69
2022/10/08 00:36:38;;;;;;;19.05;9.77;;;;;;;15.42;100.00;99125.56;4266803;33;20160;-70
2022/10/08 00:39:10;;;;;;;17.45;10.23;;;;;;;15.10;100.00;99126.78;4285438;33;20038;-69
2022/10/08 00:41:38;;;;;;;17.52;9.63;;;;;;;15.37;100.00;99133.75;4278395;33;20033;-69
2022/10/08 00:44:41;;;;;;;20.52;10.70;;;;;;;15.35;100.00;99078.94;4281758;33;20059;-68
2022/10/08 00:47:30;;;;;;;18.58;9.55;;;;;;;15.25;100.00;99128.62;4280474;33;20060;-69
2022/10/08 00:50:13;;;;;;;18.70;10.35;;;;;;;15.31;100.00;99121.28;4281372;33;20063;-68
2022/10/08 00:52:44;;;;;;;23.42;10.50;;;;;;;15.08;100.00;99091.00;4280732;33;20091;-69
2022/10/08 00:55:12;;;;;;;20.98;9.90;;;;;;;15.60;100.00;99114.06;4274558;33;20467;-69
2022/10/08 00:57:40;;;;;;;17.08;11.02;;;;;;;15.16;100.00;99120.25;4265830;33;20528;-69
2022/10/08 01:00:11;;;;;;;20.27;10.65;;;;;;;15.20;100.00;99121.31;4260924;33;20066;-69
2022/10/08 01:02:37;;;;;;;14.95;10.07;;;;;;;15.13;100.00;99118.09;4257742;33;20037;-69
2022/10/08 01:05:05;;;;;;;18.30;9.48;;;;;;;15.21;100.00;99076.84;4277955;33;20042;-69
2022/10/08 01:07:48;;;;;;;17.87;10.70;;;;;;;15.43;100.00;99102.78;4281131;33;20055;-69
2022/10/08 01:10:26;;;;;;;;;;;;;;;15.59;100.00;99104.31;4299055;33;20037;-70
2022/10/08 01:13:02;;;;;;;16.75;11.32;;;;;;;15.43;100.00;99103.59;4301179;33;19937;-69
2022/10/08 01:15:48;;;;;;;22.42;11.30;;;;;;;15.40;100.00;99097.91;4303075;33;20070;-69
2022/10/08 01:21:52;;;;;;;17.00;11.02;;;;;;;15.26;100.00;99098.50;4293676;33;20059;-69
2022/10/08 01:27:27;;;;;;;16.37;10.40;;;;;;;14.92;100.00;99076.72;4295359;33;20063;-69
2022/10/08 01:29:55;;;;;;;20.30;11.35;;;;;;;15.42;100.00;99079.44;4288336;33;20049;-70
2022/10/08 01:32:28;;;;;;;21.73;11.40;;;;;;;15.21;100.00;99087.69;4295207;33;20053;-69
2022/10/08 01:35:01;;;;;;;14.23;10.57;;;;;;;15.04;100.00;99068.25;4295426;33;20066;-69
2022/10/08 01:37:36;;;;;;;22.73;10.98;;;;;;;14.98;100.00;99042.25;4292985;33;20056;-73
2022/10/08 01:40:08;;;;;;;20.85;10.73;;;;;;;15.71;100.00;99078.72;4294875;33;20103;-69
2022/10/08 01:42:38;;;;;;;16.42;10.27;;;;;;;15.39;100.00;99044.72;4293486;33;20082;-69
2022/10/08 01:45:14;;;;;;;19.58;11.40;;;;;;;15.57;100.00;99082.06;4296641;33;20070;-74
2022/10/08 01:47:44;;;;;;;19.42;10.57;;;;;;;15.50;100.00;99031.91;4267364;33;20042;-71
2022/10/08 01:50:40;;;;;;;24.08;10.27;;;;;;;15.93;100.00;99079.13;4266240;33;20065;-69
2022/10/08 01:53:11;;;;;;;18.30;10.93;;;;;;;15.97;100.00;99077.47;4265813;33;20050;-69
2022/10/08 01:55:43;;;;;;;20.40;10.80;;;;;;;15.96;100.00;99073.13;4270902;33;20078;-69
2022/10/08 01:58:27;;;;;;;19.15;11.73;;;;;;;16.18;100.00;99077.28;4273950;33;20038;-70
2022/10/08 02:00:57;;;;;;;18.87;10.88;;;;;;;15.90;100.00;99068.81;4278321;33;20057;-69
2022/10/08 02:03:23;;;;;;;21.40;10.50;;;;;;;15.65;100.00;99025.56;4262504;33;20169;-69
2022/10/08 02:05:54;;;;;;;28.33;11.52;;;;;;;15.80;100.00;99058.06;4257748;33;20038;-70
2022/10/08 02:08:21;;;;;;;19.73;11.35;;;;;;;15.72;100.00;99032.28;4248567;33;20103;-70
2022/10/08 02:10:48;;;;;;;18.42;10.55;;;;;;;16.05;100.00;99029.06;4237513;33;20058;-69
2022/10/08 02:13:14;;;;;;;15.23;9.70;;;;;;;16.10;100.00;99056.19;4237136;33;20026;-69
2022/10/08 02:16:09;;;;;;;21.80;11.15;;;;;;;16.05;100.00;99061.63;4202930;34;20059;-70
2022/10/08 02:18:45;;;;;;;18.65;10.18;;;;;;;16.23;100.00;99058.22;4204107;34;20398;-69
2022/10/08 02:21:20;;;;;;;14.40;10.15;;;;;;;16.09;100.00;99065.41;4202508;34;20074;-69
2022/10/08 02:24:03;;;;;;;16.17;9.57;;;;;;;16.22;100.00;99064.75;4207611;34;20039;-70
2022/10/08 02:26:35;;;;;;;21.90;9.25;;;;;;;15.93;100.00;99003.09;4208539;34;20130;-69
2022/10/08 02:29:19;;;;;;;22.15;10.18;;;;;;;16.34;100.00;99051.59;4237552;33;20064;-69
2022/10/08 02:31:51;;;;;;;22.58;10.40;;;;;;;16.39;100.00;99047.22;4223913;33;20074;-69
2022/10/08 02:34:25;;;;;;;17.08;10.00;;;;;;;16.46;100.00;99047.66;4229664;33;20184;-68
2022/10/08 02:37:15;;;;;;;19.67;10.52;;;;;;;16.21;100.00;99014.25;4223968;33;20075;-74
2022/10/08 02:39:47;;;;;;;17.92;10.00;;;;;;;16.06;100.00;99006.25;4237684;33;20431;-69
2022/10/08 02:42:18;;;;;;;17.75;9.98;;;;;;;16.20;100.00;99050.66;4209485;34;20055;-69
2022/10/08 02:44:51;;;;;;;14.55;10.75;;;;;;;16.19;100.00;99043.59;4215395;33;20120;-70
2022/10/08 02:47:22;;;;;;;18.48;10.43;;;;;;;15.97;100.00;99053.03;4252541;33;20042;-69
2022/10/08 02:49:56;;;;;;;17.30;11.03;;;;;;;16.03;100.00;99047.53;4265855;33;20026;-69
2022/10/08 02:52:26;;;;;;;25.20;10.25;;;;;;;15.61;100.00;98990.84;4276489;33;20149;-73
2022/10/08 02:54:55;;;;;;;23.08;11.15;;;;;;;16.29;100.00;99043.50;4276307;33;20107;-69
2022/10/08 02:57:26;;;;;;;18.15;10.85;;;;;;;16.09;100.00;99047.22;4264449;33;20094;-69
2022/10/08 02:59:52;;;;;;;15.82;10.15;;;;;;;16.44;100.00;99039.81;4261757;33;20038;-69
2022/10/08 03:02:28;;;;;;;18.90;10.02;;;;;;;16.23;100.00;99039.22;4262253;33;20433;-74
2022/10/08 03:05:01;;;;;;;16.52;9.95;;;;;;;16.39;100.00;99047.22;4264371;33;20141;-70
2022/10/08 03:07:29;;;;;;;15.32;9.70;;;;;;;16.20;100.00;99034.34;4265553;33;20042;-69
2022/10/08 03:09:58;;;;;;;16.95;9.90;;;;;;;16.26;100.00;99030.50;4269566;33;20344;-68
2022/10/08 03:12:25;;;;;;;17.42;9.73;;;;;;;16.36;100.00;99042.34;4271259;33;20457;-68
2022/10/08 03:14:51;;;;;;;17.33;10.65;;;;;;;16.10;100.00;99029.81;4278786;33;20059;-69
2022/10/08 03:17:24;;;;;;;20.10;10.18;;;;;;;16.51;100.00;99023.16;4285696;33;20048;-69
2022/10/08 03:19:51;;;;;;;17.33;10.68;;;;;;;16.39;100.00;99036.34;4306589;33;20080;-73
2022/10/08 03:22:18;;;;;;;16.60;9.63;;;;;;;16.30;100.00;99028.78;4307647;33;20037;-70
2022/10/08 03:24:44;;;;;;;20.80;9.93;;;;;;;16.14;100.00;99019.19;4307066;33;20112;-70
2022/10/08 03:27:12;;;;;;;18.25;11.07;;;;;;;16.16;100.00;99044.97;4296015;33;20025;-69
2022/10/08 03:29:38;;;;;;;25.00;10.38;;;;;;;16.19;100.00;99032.72;4276272;33;20071;-69
2022/10/08 03:32:05;;;;;;;18.12;11.12;;;;;;;16.44;100.00;99014.53;4280299;33;20110;-73
2022/10/08 03:34:31;;;;;;;22.62;10.73;;;;;;;16.31;100.00;99045.94;4279325;33;20415;-69
2022/10/08 03:36:58;;;;;;;14.27;10.27;;;;;;;16.55;100.00;99035.06;4282339;33;20455;-68
2022/10/08 03:39:24;;;;;;;14.98;11.12;;;;;;;16.33;100.00;99032.84;4280849;33;20041;-71
2022/10/08 03:41:50;;;;;;;15.02;9.95;;;;;;;16.27;100.00;99034.00;4274550;33;20087;-69
2022/10/08 03:44:17;;;;;;;18.75;10.25;;;;;;;16.25;100.00;99037.00;4266006;33;20481;-71
2022/10/08 03:46:43;;;;;;;27.95;11.77;;;;;;;15.89;100.00;99037.34;4267355;33;20049;-69
2022/10/08 03:49:09;;;;;;;18.62;11.40;;;;;;;16.19;100.00;98999.31;4266445;33;20060;-69
2022/10/08 03:51:36;;;;;;;17.30;11.40;;;;;;;16.12;100.00;99002.37;4267611;33;20038;-70
2022/10/08 03:54:02;;;;;;;23.40;10.63;;;;;;;16.16;100.00;99025.13;4267584;33;20060;-69
2022/10/08 03:56:29;;;;;;;20.85;10.80;;;;;;;16.50;100.00;99016.13;4265102;33;20026;-74
2022/10/08 03:58:59;;;;;;;24.37;11.50;;;;;;;16.20;100.00;98996.31;4267359;33;20046;-70
2022/10/08 04:01:27;;;;;;;23.15;9.75;;;;;;;16.58;100.00;99023.63;4265557;33;20052;-71
2022/10/08 04:03:53;;;;;;;21.62;10.75;;;;;;;16.42;100.00;99035.75;4276034;33;20045;-69
2022/10/08 04:06:20;;;;;;;19.77;10.38;;;;;;;16.49;100.00;99036.22;4279173;33;20113;-70
2022/10/08 04:08:46;;;;;;;16.10;10.02;;;;;;;16.21;100.00;98995.22;4265410;33;20038;-71
2022/10/08 04:11:15;;;;;;;14.95;10.35;;;;;;;16.38;100.00;99030.09;4278048;33;20901;-70
2022/10/08 04:13:42;;;;;;;16.73;10.80;;;;;;;16.65;100.00;99018.63;4282164;33;20332;-70
2022/10/08 04:16:11;;;;;;;17.17;11.00;;;;;;;16.63;100.00;99031.72;4279597;33;20049;-69
2022/10/08 04:18:39;;;;;;;17.73;9.77;;;;;;;16.50;100.00;99033.22;4279905;33;20166;-74
2022/10/08 04:21:08;;;;;;;17.48;10.48;;;;;;;16.17;100.00;98996.88;4289459;33;20108;-69
2022/10/08 04:23:36;;;;;;;16.75;10.40;;;;;;;16.10;100.00;98991.00;4295113;33;20037;-69
2022/10/08 04:26:03;;;;;;;23.02;11.07;;;;;;;16.40;100.00;99032.50;4279961;33;20037;-69
2022/10/08 04:28:29;;;;;;;17.58;10.98;;;;;;;16.38;100.00;99034.72;4280695;33;20033;-69
2022/10/08 04:31:01;;;;;;;16.65;10.45;;;;;;;16.37;100.00;99027.66;4278238;33;20053;-69
2022/10/08 04:33:29;;;;;;;20.88;10.52;;;;;;;16.02;100.00;98983.47;4290886;33;20057;-71
2022/10/08 04:35:56;;;;;;;20.88;10.35;;;;;;;16.36;100.00;99021.41;4277202;33;20293;-70
2022/10/08 04:38:23;;;;;;;22.20;10.48;;;;;;;16.29;100.00;99018.22;4277218;33;20119;-68
2022/10/08 04:41:09;;;;;;;20.48;10.98;;;;;;;16.20;100.00;98990.88;4275184;33;20071;-73
2022/10/08 04:43:38;;;;;;;22.40;11.82;;;;;;;16.33;100.00;99028.22;4293776;33;20049;-70
2022/10/08 04:46:07;;;;;;;19.33;10.35;;;;;;;16.40;100.00;99021.66;4263695;33;20034;-69
2022/10/08 04:48:34;;;;;;;22.10;10.35;;;;;;;16.39;100.00;99004.53;4206478;34;20386;-74
2022/10/08 04:51:02;;;;;;;16.87;10.90;;;;;;;16.48;100.00;99008.25;4179557;34;20073;-69
2022/10/08 04:53:29;;;;;;;18.80;10.23;;;;;;;16.58;100.00;98985.56;4193981;34;20052;-69
2022/10/08 04:55:56;;;;;;;27.05;10.00;;;;;;;16.72;100.00;99018.31;4195180;34;20435;-70
2022/10/08 04:58:26;;;;;;;20.95;11.23;;;;;;;16.51;100.00;99034.03;4195411;34;20035;-70
2022/10/08 05:00:53;;;;;;;14.45;10.55;;;;;;;16.40;100.00;98983.59;4209216;34;20065;-70
2022/10/08 05:03:19;;;;;;;14.52;10.27;;;;;;;16.49;100.00;99038.94;4209131;34;20051;-70
2022/10/08 05:05:45;;;;;;;19.12;11.93;;;;;;;16.65;100.00;99029.50;4211506;34;20042;-70
2022/10/08 05:08:12;;;;;;;18.35;10.32;;;;;;;16.70;100.00;99028.62;4222173;33;20068;-69
2022/10/08 05:10:38;;;;;;;17.20;10.93;;;;;;;16.50;100.00;99035.94;4222443;33;20088;-69
2022/10/08 05:13:05;;;;;;;18.85;10.45;;;;;;;16.64;100.00;99027.91;4222831;33;20077;-69
2022/10/08 05:15:33;;;;;;;20.05;10.40;;;;;;;16.01;100.00;98987.28;4230929;33;20058;-68
2022/10/08 05:18:00;;;;;;;22.75;10.23;;;;;;;16.14;100.00;99030.06;4233113;33;20042;-68
2022/10/08 05:20:26;;;;;;;20.37;11.20;;;;;;;16.38;100.00;99021.12;4246345;33;20035;-71
2022/10/08 05:22:53;;;;;;;17.80;10.63;;;;;;;16.64;100.00;99021.62;4249263;33;20075;-75
2022/10/08 05:25:19;;;;;;;16.95;11.50;;;;;;;16.45;100.00;99018.87;4250699;33;20054;-71
2022/10/08 05:27:45;;;;;;;19.23;10.93;;;;;;;16.31;100.00;99010.63;4253070;33;20436;-70
2022/10/08 05:30:12;;;;;;;22.87;11.02;;;;;;;16.06;100.00;99022.53;4250652;33;20084;-69
2022/10/08 05:32:38;;;;;;;21.15;11.12;;;;;;;16.16;100.00;99031.41;4252027;33;20034;-75
2022/10/08 05:35:05;;;;;;;26.90;11.05;;;;;;;16.17;100.00;98996.88;4248600;33;20105;-69
2022/10/08 05:37:32;;;;;;;14.77;10.45;;;;;;;16.66;100.00;99020.25;4252684;33;20071;-70
2022/10/08 05:39:58;;;;;;;15.18;10.25;;;;;;;16.63;100.00;99020.84;4250252;33;20060;-68
2022/10/08 05:42:24;;;;;;;22.70;10.35;;;;;;;16.75;100.00;99033.22;4265354;33;20437;-68
2022/10/08 05:44:51;;;;;;;17.62;10.25;;;;;;;16.36;100.00;98994.25;4260924;33;20076;-70
2022/10/08 05:47:17;;;;;;;18.12;10.50;;;;;;;16.47;100.00;99038.44;4260867;33;20045;-70
2022/10/08 05:49:47;;;;;;;14.77;10.23;;;;;;;16.23;100.00;99001.19;4262446;33;20063;-70
2022/10/08 05:52:13;;;;;;;18.60;9.93;;;;;;;16.09;100.00;98998.31;4250424;33;20189;-70
2022/10/08 05:54:40;;;;;;;15.38;10.02;;;;;;;16.50;100.00;99037.84;4249533;33;20073;-76
2022/10/08 05:57:06;;;;;;;13.20;10.13;;;;;;;16.34;100.00;99008.13;4249826;33;20134;-69
2022/10/08 05:59:32;;;;;;;21.35;10.32;;;;;;;16.48;100.00;99045.47;4251096;33;20068;-69
2022/10/08 06:01:59;;;;;;;17.12;10.32;;;;;;;16.89;100.00;99045.03;4252224;33;20038;-69
2022/10/08 06:04:26;;;;;;;18.20;10.18;;;;;;;16.61;100.00;99038.53;4235426;33;20072;-69
2022/10/08 06:06:52;;;;;;;19.67;9.85;;;;;;;16.56;100.00;99042.13;4230026;33;20064;-70
2022/10/08 06:09:20;;;;;;;19.02;9.60;;;;;;;16.68;100.00;99045.25;4235522;33;20042;-69
2022/10/08 06:11:47;;;;;;;17.90;11.25;;;;;;;16.50;100.00;99006.03;4237382;33;20481;-68
2022/10/08 06:14:23;;;;;;;18.23;9.82;;;;;;;16.48;100.00;99037.31;4243684;33;20034;-69
2022/10/08 06:16:49;;;;;;;25.73;10.90;;;;;;;16.67;100.00;99038.19;4232631;33;20050;-74
2022/10/08 06:19:16;;;;;;;15.10;10.15;;;;;;;16.74;100.00;99037.03;4246042;33;20201;-70
2022/10/08 06:21:43;;;;;;;18.02;10.18;;;;;;;16.55;100.00;99051.38;4237136;33;20039;-69
2022/10/08 06:24:11;;;;;;;17.08;8.88;;;;;;;16.61;100.00;99033.91;4261844;33;20049;-69
2022/10/08 06:26:39;;;;;;;22.90;10.43;;;;;;;16.65;100.00;99034.94;4261759;33;20098;-69
2022/10/08 06:29:07;;;;;;;10.85;9.00;;;;;;;17.11;100.00;99040.97;4249972;33;20043;-69
2022/10/08 06:31:35;;;;;;;23.00;9.20;;;;;;;16.22;100.00;99007.69;4249903;33;20077;-71
2022/10/08 06:34:05;;;;;;;17.17;9.32;;;;;;;16.86;100.00;99041.00;4237331;33;20104;-70
2022/10/08 06:36:32;;;;;;;21.48;10.07;;;;;;;17.04;100.00;99030.41;4273123;33;20081;-71
2022/10/08 06:39:05;;;;;;;16.45;8.68;;;;;;;16.45;100.00;98965.34;4275330;33;20081;-70
2022/10/08 06:41:33;;;;;;;14.13;8.80;;;;;;;16.55;100.00;99045.94;4271648;33;20041;-70
2022/10/08 06:44:10;;;;;;;15.70;9.48;;;;;;;16.62;100.00;99035.53;4293061;33;20052;-69
2022/10/08 06:46:37;;;;;;;14.87;8.68;;;;;;;16.55;100.00;99056.81;4291983;33;20168;-71
2022/10/08 06:49:06;;;;;;;13.23;8.35;;;;;;;16.89;100.00;99050.47;4288774;33;20098;-71
2022/10/08 06:51:33;;;;;;;17.02;9.27;;;;;;;16.95;100.00;99043.88;4288466;33;20470;-70
2022/10/08 06:54:00;;;;;;;16.45;8.93;;;;;;;16.94;100.00;99046.88;4289592;33;20032;-69
2022/10/08 06:56:28;;;;;;;14.40;9.48;;;;;;;16.77;100.00;98998.38;4288537;33;20054;-70
2022/10/08 06:58:54;;;;;;;15.90;9.20;;;;;;;16.95;100.00;99038.44;4287173;33;20533;-72
2022/10/08 07:01:23;;;;;;;14.95;8.48;;;;;;;17.10;100.00;99042.84;4289521;33;20085;-70
2022/10/08 07:03:53;;;;;;;15.57;9.05;;;;;;;17.03;100.00;99040.50;4286195;33;20033;-70
2022/10/08 07:06:20;;;;;;;16.05;8.95;;;;;;;17.15;100.00;99044.69;4271709;33;20077;-71
2022/10/08 07:08:50;;;;;;;12.68;8.85;;;;;;;17.01;100.00;99053.59;4275970;33;20480;-71
2022/10/08 07:11:18;;;;;;;20.80;9.20;;;;;;;17.04;100.00;99039.41;4288636;33;20128;-69
2022/10/08 07:13:45;;;;;;;12.30;8.50;;;;;;;17.38;100.00;99045.75;4291320;33;20061;-72
2022/10/08 07:16:17;;;;;;;12.63;8.88;;;;;;;17.12;100.00;99034.41;4277174;33;20119;-69
2022/10/08 07:18:45;;;;;;;11.50;8.23;;;;;;;17.50;100.00;99037.12;4273686;33;20063;-71
2022/10/08 07:21:14;;;;;;;14.60;8.85;;;;;;;17.48;100.00;99050.22;4278637;33;20505;-70
2022/10/08 07:23:41;;;;;;;19.55;9.20;;;;;;;17.25;100.00;99034.50;4273304;33;20029;-70
2022/10/08 07:26:16;;;;;;;17.10;9.50;;;;;;;17.55;100.00;99034.31;4272281;33;20053;-69
2022/10/08 07:28:52;;;;;;;16.48;8.85;;;;;;;17.26;100.00;99038.00;4277966;33;20447;-70
2022/10/08 07:31:28;;;;;;;13.93;9.48;;;;;;;17.29;100.00;98991.16;4271370;33;20041;-69
2022/10/08 07:33:56;;;;;;;14.65;8.70;;;;;;;17.29;100.00;99026.53;4284999;33;20063;-69
2022/10/08 07:36:24;;;;;;;19.27;9.15;;;;;;;17.23;100.00;98995.06;4290780;33;20087;-69
2022/10/08 07:38:55;;;;;;;21.75;9.25;;;;;;;17.28;100.00;99018.66;4267821;33;20205;-70
2022/10/08 07:41:21;;;;;;;17.67;8.77;;;;;;;17.24;100.00;99023.91;4267606;33;20034;-69
2022/10/08 07:43:51;;;;;;;12.88;8.70;;;;;;;17.78;100.00;99033.41;4281697;33;20076;-69
2022/10/08 07:46:18;;;;;;;18.50;9.52;;;;;;;17.39;100.00;99026.41;4281787;33;20037;-71
2022/10/08 07:48:45;;;;;;;13.98;8.98;;;;;;;17.35;100.00;99024.56;4297606;33;20499;-68
2022/10/08 07:51:17;;;;;;;13.43;8.52;;;;;;;17.84;100.00;99019.72;4292565;33;20545;-69
2022/10/08 07:53:44;;;;;;;14.85;9.38;;;;;;;17.18;100.00;99019.63;4294410;33;20052;-69
2022/10/08 07:56:12;;;;;;;18.95;8.07;;;;;;;17.54;100.00;98975.56;4290847;33;20133;-73
2022/10/08 07:58:40;;;;;;;14.45;8.77;;;;;;;17.21;100.00;99019.03;4294139;33;20049;-73
2022/10/08 08:01:10;;;;;;;19.30;9.20;;;;;;;17.67;100.00;99012.09;4292609;33;20412;-70
2022/10/08 08:03:37;;;;;;;15.43;8.95;;;;;;;17.75;100.00;99014.94;4292127;33;20037;-70
2022/10/08 08:06:06;;;;;;;11.63;8.15;;;;;;;17.52;100.00;98984.03;4288444;33;20041;-75
2022/10/08 08:08:34;;;;;;;17.90;8.77;;;;;;;17.62;100.00;99018.44;4288979;33;20076;-69
2022/10/08 08:11:03;;;;;;;16.95;9.35;;;;;;;18.04;100.00;99013.16;4292255;33;20081;-70
2022/10/08 08:13:31;;;;;;;11.65;9.27;;;;;;;18.14;100.00;99013.78;4288062;33;20037;-69
2022/10/08 08:16:00;;;;;;;15.82;8.73;;;;;;;17.53;100.00;99023.72;4290331;33;20459;-74
2022/10/08 08:18:28;;;;;;;13.77;9.35;;;;;;;17.67;100.00;99021.06;4290593;33;20297;-69
2022/10/08 08:21:07;;;;;;;19.55;8.68;;;;;;;17.80;100.00;99019.50;4277667;33;20458;-70
2022/10/08 08:23:36;;;;;;;14.77;7.80;;;;;;;17.84;100.00;98951.63;4276438;33;20046;-69
2022/10/08 08:26:10;;;;;;;21.95;8.80;;;;;;;17.43;100.00;99016.53;4273305;33;20100;-70
2022/10/08 08:28:37;;;;;;;11.05;7.75;;;;;;;17.90;100.00;98980.41;4239982;33;20054;-70
2022/10/08 08:31:06;;;;;;;14.65;9.13;;;;;;;18.14;100.00;99002.87;4242538;33;20102;-69
2022/10/08 08:33:33;;;;;;;16.98;8.63;;;;;;;18.34;100.00;98968.16;4239294;33;21777;-71
2022/10/08 08:36:00;;;;;;;13.50;8.82;;;;;;;18.23;100.00;98988.56;4238233;33;20068;-69
2022/10/08 08:38:26;;;;;;;16.83;8.27;;;;;;;17.78;100.00;99022.53;4238410;33;20030;-69
2022/10/08 08:40:55;;;;;;;13.82;7.72;;;;;;;17.92;100.00;99021.81;4265037;33;20373;-69
2022/10/08 08:43:24;;;;;;;17.30;8.73;;;;;;;17.56;100.00;98978.78;4264305;33;20073;-71
2022/10/08 08:45:57;;;;;;;17.48;9.38;;;;;;;17.91;100.00;98982.03;4252887;33;20058;-71
2022/10/08 08:48:27;;;;;;;14.35;8.73;;;;;;;18.15;100.00;98988.13;4256797;33;20451;-68
2022/10/08 08:50:57;;;;;;;13.50;8.75;;;;;;;18.31;100.00;98987.84;4255000;33;20056;-69
2022/10/08 08:53:24;;;;;;;16.12;8.45;;;;;;;18.42;100.00;99024.69;4282470;33;20107;-69
2022/10/08 08:55:54;;;;;;;13.82;8.32;;;;;;;18.66;100.00;99029.16;4274841;33;20051;-69
2022/10/08 08:58:39;;;;;;;14.15;7.85;;;;;;;18.33;100.00;99034.69;4289190;33;20033;-69
2022/10/08 09:01:08;;;;;;;12.27;8.90;;;;;;;18.47;100.00;99026.53;4303953;33;20099;-71
2022/10/08 09:03:40;;;;;;;9.55;7.32;;;;;;;18.26;100.00;98996.94;4304723;33;20066;-69
2022/10/08 09:06:11;;;;;;;11.12;8.43;;;;;;;17.91;100.00;98992.94;4305954;33;20036;-68
2022/10/08 09:08:56;;;;;;;17.23;9.00;;;;;;;18.14;100.00;99034.75;4306480;33;20021;-69
2022/10/08 09:11:24;;;;;;;12.15;8.85;;;;;;;18.74;100.00;99036.62;4298849;33;20120;-69
2022/10/08 09:14:04;;;;;;;13.98;8.43;;;;;;;18.65;100.00;99033.00;4292714;33;20206;-70
2022/10/08 09:16:34;;;;;;;14.40;8.75;;;;;;;18.95;100.00;99030.78;4307123;33;20142;-70
2022/10/08 09:19:00;;;;;;;15.10;9.73;;;;;;;18.43;100.00;99025.53;4298702;33;20044;-75
2022/10/08 09:21:32;;;;;;;17.23;8.60;;;;;;;18.94;100.00;98990.97;4301692;33;20052;-68
2022/10/08 09:24:00;;;;;;;13.77;9.10;;;;;;;19.15;100.00;99024.87;4296254;33;20117;-69
2022/10/08 09:26:32;;;;;;;11.20;7.80;;;;;;;19.28;100.00;99022.44;4298233;33;20513;-69
2022/10/08 09:29:00;;;;;;;20.05;8.73;;;;;;;19.37;100.00;99001.47;4295371;33;20086;-69
2022/10/08 09:31:50;;;;;;;12.50;8.32;;;;;;;19.65;100.00;99025.94;4299540;33;20168;-70
2022/10/08 09:34:18;;;;;;;10.43;8.32;;;;;;;19.53;100.00;99024.59;4300527;33;20048;-72
2022/10/08 09:36:50;;;;;;;13.23;7.97;;;;;;;19.08;100.00;98989.00;4316342;33;20870;-69
2022/10/08 09:39:26;;;;;;;20.40;8.70;;;;;;;18.90;100.00;98973.63;4302221;33;20061;-70
2022/10/08 09:42:08;;;;;;;20.70;8.98;;;;;;;19.57;100.00;98976.41;4308476;33;20128;-74
2022/10/08 09:44:49;;;;;;;10.70;7.70;;;;;;;19.86;100.00;99016.16;4282390;33;20057;-69
2022/10/08 09:47:21;;;;;;;13.20;7.30;;;;;;;19.62;100.00;99010.19;4278005;33;20053;-71
2022/10/08 09:50:18;;;;;;;12.20;7.53;;;;;;;20.24;100.00;99013.00;4257199;33;20067;-69
2022/10/08 09:52:52;;;;;;;16.50;7.60;;;;;;;19.25;100.00;99007.47;4259207;33;20037;-69
2022/10/08 09:55:28;;;;;;;17.87;8.65;;;;;;;19.63;100.00;99000.88;4247987;33;20497;-74
2022/10/08 09:57:59;;;;;;;17.05;7.87;;;;;;;19.34;100.00;98983.00;4249644;33;20070;-70
2022/10/08 10:00:28;;;;;;;19.60;8.10;;;;;;;19.60;100.00;98959.41;4249174;33;20061;-70
2022/10/08 10:02:58;;;;;;;12.77;8.02;;;;;;;19.82;100.00;98987.84;4248123;33;20130;-75
2022/10/08 10:05:33;;;;;;;14.60;7.37;;;;;;;20.24;100.00;98987.59;4243447;33;20048;-70
2022/10/08 10:07:59;;;;;;;9.95;7.00;;;;;;;20.47;100.00;98991.03;4237101;33;20030;-69
2022/10/08 10:10:33;;;;;;;14.82;7.62;;;;;;;19.76;100.00;98987.16;4243436;33;20034;-70
2022/10/08 10:13:13;;;;;;;18.98;7.20;;;;;;;20.44;100.00;98980.78;4248139;33;20080;-71
2022/10/08 10:15:45;;;;;;;9.90;6.53;;;;;;;20.74;100.00;98975.56;4248351;33;20085;-68
2022/10/08 10:18:28;;;;;;;13.30;7.03;;;;;;;20.76;100.00;98995.19;4233172;33;20378;-69
2022/10/08 10:20:58;;;;;;;14.43;7.00;;;;;;;20.62;100.00;98998.84;4241518;33;20392;-70
2022/10/08 10:23:37;;;;;;;14.02;6.03;;;;;;;20.73;100.00;98950.13;4233502;33;20087;-70
2022/10/08 10:26:28;;;;;;;15.60;6.97;;;;;;;21.01;100.00;98983.50;4244512;33;20486;-70
2022/10/08 10:28:58;;;;;;;16.42;6.32;;;;;;;20.92;100.00;98990.91;4248979;33;20038;-70
2022/10/08 10:31:43;;;;;;;11.30;5.57;;;;;;;19.65;100.00;98954.94;4258435;33;20072;-70
2022/10/08 10:34:22;;;;;;;25.20;5.70;;;;;;;20.22;100.00;98979.72;4261415;33;20064;-70
2022/10/08 10:36:56;;;;;;;15.13;8.13;;;;;;;20.79;100.00;98937.91;4253535;33;20076;-71
2022/10/08 10:39:54;;;;;;;13.90;5.97;;;;;;;20.57;100.00;98985.31;4258472;33;20078;-70
2022/10/08 10:42:26;;;;;;;18.40;7.03;;;;;;;20.53;100.00;98976.09;4258724;33;20066;-72
2022/10/08 10:44:57;;;;;;;9.65;5.47;;;;;;;20.31;100.00;98986.03;4257618;33;20064;-71
2022/10/08 10:47:28;;;;;;;9.95;6.57;;;;;;;20.76;100.00;98971.37;4238175;33;20092;-71
2022/10/08 10:49:57;;;;;;;11.10;6.80;;;;;;;21.25;100.00;98971.25;4241652;33;20118;-70
2022/10/08 10:52:47;;;;;;;12.65;7.22;;;;;;;21.51;100.00;98962.28;4243133;33;20392;-69
2022/10/08 10:55:37;;;;;;;9.68;5.95;;;;;;;21.07;100.00;98975.13;4253789;33;20083;-70
2022/10/08 10:58:07;;;;;;;10.35;5.68;;;;;;;21.29;100.00;98966.75;4268302;33;20100;-70
2022/10/08 11:00:33;;;;;;;11.50;5.90;;;;;;;21.94;100.00;98975.09;4269955;33;20667;-70
2022/10/08 11:03:19;;;;;;;11.65;5.47;;;;;;;21.38;100.00;98942.91;4269106;33;20041;-69
2022/10/08 11:05:54;;;;;;;13.27;5.00;;;;;;;21.23;100.00;98929.72;4271904;33;20049;-71
2022/10/08 11:08:32;;;;;;;14.30;5.20;;;;;;;20.97;100.00;98914.09;4255943;33;20356;-70
2022/10/08 11:11:27;;;;;;;12.93;6.07;;;;;;;21.39;100.00;98914.38;4272295;33;20408;-71
2022/10/08 11:14:15;;;;;;;10.00;5.47;;;;;;;21.77;100.00;98957.53;4269038;33;20053;-69
2022/10/08 11:16:53;;;;;;;12.63;5.28;;;;;;;21.66;100.00;98953.53;4271390;33;20099;-68
2022/10/08 11:19:28;;;;;;;10.38;6.35;;;;;;;21.20;100.00;98939.41;4295973;33;20414;-69
2022/10/08 11:22:38;;;;;;;10.20;5.85;;;;;;;21.05;100.00;98918.78;4301704;33;20071;-69
2022/10/08 11:25:20;;;;;;;10.52;6.35;;;;;;;20.67;100.00;98941.25;4299688;33;20102;-70
2022/10/08 11:27:53;;;;;;;;;;;;;;;21.86;100.00;98945.75;4304089;33;20132;-69
2022/10/08 11:30:34;;;;;;;13.15;5.90;;;;;;;21.37;100.00;98926.81;4304872;33;20007;-70
2022/10/08 11:33:02;;;;;;;9.40;6.43;;;;;;;21.60;100.00;98932.91;4307154;33;20078;-70
2022/10/08 11:36:09;;;;;;;8.90;5.90;;;;;;;21.39;100.00;98911.66;4307294;33;20041;-69
2022/10/08 11:38:56;;;;;;;10.07;6.45;;;;;;;21.95;100.00;98921.84;4289757;33;20041;-72
2022/10/08 11:41:31;;;;;;;12.73;6.68;;;;;;;22.06;100.00;98917.63;4305063;33;20367;-70